Terminal Aerodrome Forecast
Issued by NWS

Home | Current Version | Previous Version | Text Only | Print | Product List | Glossary On
Versions: 1 2 3 4 5 6 7 8 9 10 11 12 13 14 15 16
131
FTPA31 PHFO 240900 AAB
TAFHTO
TAF AMD
PHTO 240900Z 2409/2506 24006KT 5SM -SHRA BKN025
     FM242000 08010KT P6SM VCSH FEW025 BKN040
     FM250500 22008KT P6SM VCSH FEW025 BKN035=

USA.gov is the U.S. government's official web portal to all federal, state and local government web resources and services.